sensor_id;sensor_type;location;lat;lon;timestamp;pressure;altitude;pressure_sealevel;temperature;humidity
14885;BME280;7534;50.762;7.000;2023-05-22T00:00:04;87046.91;;;-143.16;75.49
14885;BME280;7534;50.762;7.000;2023-05-22T00:02:33;87042.88;;;-143.16;76.23
14885;BME280;7534;50.762;7.000;2023-05-22T00:05:06;87103.41;;;-143.16;76.51
14885;BME280;7534;50.762;7.000;2023-05-22T00:07:32;87087.25;;;-143.16;76.58
14885;BME280;7534;50.762;7.000;2023-05-22T00:09:57;87117.53;;;-143.16;77.26
14885;BME280;7534;50.762;7.000;2023-05-22T00:12:23;87109.47;;;-143.16;77.69
14885;BME280;7534;50.762;7.000;2023-05-22T00:14:50;87117.53;;;-143.16;77.58
14885;BME280;7534;50.762;7.000;2023-05-22T00:17:15;87048.94;;;-143.16;77.46
14885;BME280;7534;50.762;7.000;2023-05-22T00:19:41;87107.44;;;-143.16;77.49
14885;BME280;7534;50.762;7.000;2023-05-22T00:22:08;87105.44;;;-143.16;77.48
14885;BME280;7534;50.762;7.000;2023-05-22T00:24:34;87089.28;;;-143.16;77.86
14885;BME280;7534;50.762;7.000;2023-05-22T00:27:00;87103.41;;;-143.16;78.35
14885;BME280;7534;50.762;7.000;2023-05-22T00:29:25;87119.56;;;-143.16;77.96
14885;BME280;7534;50.762;7.000;2023-05-22T00:31:51;87107.44;;;-143.16;77.89
14885;BME280;7534;50.762;7.000;2023-05-22T00:34:17;87143.78;;;-143.16;78.15
14885;BME280;7534;50.762;7.000;2023-05-22T00:36:44;87127.63;;;-143.16;78.46
14885;BME280;7534;50.762;7.000;2023-05-22T00:39:10;87115.53;;;-143.16;78.67
14885;BME280;7534;50.762;7.000;2023-05-22T00:41:35;87089.28;;;-143.16;78.29
14885;BME280;7534;50.762;7.000;2023-05-22T00:44:03;87063.06;;;-143.16;78.36
14885;BME280;7534;50.762;7.000;2023-05-22T00:46:28;87113.50;;;-143.16;78.55
14885;BME280;7534;50.762;7.000;2023-05-22T00:48:54;87119.56;;;-143.16;78.52
14885;BME280;7534;50.762;7.000;2023-05-22T00:51:23;87115.53;;;-143.16;78.43
14885;BME280;7534;50.762;7.000;2023-05-22T00:53:49;87099.38;;;-143.16;78.73
14885;BME280;7534;50.762;7.000;2023-05-22T00:56:16;87157.91;;;-143.16;78.96
14885;BME280;7534;50.762;7.000;2023-05-22T00:58:43;87149.81;;;-143.16;79.84
14885;BME280;7534;50.762;7.000;2023-05-22T01:01:10;87113.50;;;-143.16;79.81
14885;BME280;7534;50.762;7.000;2023-05-22T01:03:41;87133.69;;;-143.16;79.63
14885;BME280;7534;50.762;7.000;2023-05-22T01:06:12;87131.66;;;-143.16;79.57
14885;BME280;7534;50.762;7.000;2023-05-22T01:08:37;87123.59;;;-143.16;79.18
14885;BME280;7534;50.762;7.000;2023-05-22T01:11:12;87101.41;;;-143.16;78.89
14885;BME280;7534;50.762;7.000;2023-05-22T01:14:00;87131.66;;;-143.16;78.69
14885;BME280;7534;50.762;7.000;2023-05-22T01:16:38;87079.19;;;-143.16;77.90
14885;BME280;7534;50.762;7.000;2023-05-22T01:28:33;87121.56;;;-143.16;77.00
14885;BME280;7534;50.762;7.000;2023-05-22T01:31:06;87111.47;;;-143.16;76.90
14885;BME280;7534;50.762;7.000;2023-05-22T01:33:44;87067.09;;;-143.16;76.20
14885;BME280;7534;50.762;7.000;2023-05-22T01:36:17;87093.31;;;-143.16;75.94
14885;BME280;7534;50.762;7.000;2023-05-22T01:38:48;87085.25;;;-143.16;76.31
14885;BME280;7534;50.762;7.000;2023-05-22T01:41:16;87119.56;;;-143.16;76.17
14885;BME280;7534;50.762;7.000;2023-05-22T01:43:44;87107.44;;;-143.16;75.98
14885;BME280;7534;50.762;7.000;2023-05-22T01:46:10;87091.31;;;-143.16;75.89
14885;BME280;7534;50.762;7.000;2023-05-22T01:48:36;87125.59;;;-143.16;76.08
14885;BME280;7534;50.762;7.000;2023-05-22T01:51:18;87135.69;;;-143.16;76.27
14885;BME280;7534;50.762;7.000;2023-05-22T01:54:18;87079.19;;;-143.16;75.90
14885;BME280;7534;50.762;7.000;2023-05-22T01:56:59;87172.03;;;-143.16;75.98
14885;BME280;7534;50.762;7.000;2023-05-22T01:59:48;87184.13;;;-143.16;76.74
14885;BME280;7534;50.762;7.000;2023-05-22T02:02:20;87178.09;;;-143.16;76.60
14885;BME280;7534;50.762;7.000;2023-05-22T02:04:55;87127.63;;;-143.16;76.43
14885;BME280;7534;50.762;7.000;2023-05-22T02:07:23;87180.09;;;-143.16;77.33
14885;BME280;7534;50.762;7.000;2023-05-22T02:09:54;87198.25;;;-143.16;77.58
14885;BME280;7534;50.762;7.000;2023-05-22T02:12:22;87145.78;;;-143.16;77.26
14885;BME280;7534;50.762;7.000;2023-05-22T02:14:48;87196.25;;;-143.16;77.64
14885;BME280;7534;50.762;7.000;2023-05-22T02:17:14;87204.31;;;-143.16;77.57
14885;BME280;7534;50.762;7.000;2023-05-22T02:19:43;87202.28;;;-143.16;77.90
14885;BME280;7534;50.762;7.000;2023-05-22T02:22:09;87208.34;;;-143.16;78.23
14885;BME280;7534;50.762;7.000;2023-05-22T02:24:40;87250.72;;;-143.16;78.69
14885;BME280;7534;50.762;7.000;2023-05-22T02:27:07;87230.56;;;-143.16;78.43
14885;BME280;7534;50.762;7.000;2023-05-22T02:29:34;87232.56;;;-143.16;79.00
14885;BME280;7534;50.762;7.000;2023-05-22T02:31:59;87226.50;;;-143.16;79.03
14885;BME280;7534;50.762;7.000;2023-05-22T02:34:25;87272.94;;;-143.16;79.25
14885;BME280;7534;50.762;7.000;2023-05-22T02:36:59;87232.56;;;-143.16;79.52
14885;BME280;7534;50.762;7.000;2023-05-22T02:39:28;87262.84;;;-143.16;79.67
14885;BME280;7534;50.762;7.000;2023-05-22T02:41:54;87349.63;;;-143.16;79.76
14885;BME280;7534;50.762;7.000;2023-05-22T02:44:20;87268.91;;;-143.16;80.11
14885;BME280;7534;50.762;7.000;2023-05-22T02:46:46;87387.97;;;-143.16;80.75
14885;BME280;7534;50.762;7.000;2023-05-22T02:49:13;87254.78;;;-143.16;81.07
14885;BME280;7534;50.762;7.000;2023-05-22T02:51:38;87246.69;;;-143.16;80.79
14885;BME280;7534;50.762;7.000;2023-05-22T02:54:04;87369.81;;;-143.16;81.10
14885;BME280;7534;50.762;7.000;2023-05-22T02:56:30;87303.22;;;-143.16;81.41
14885;BME280;7534;50.762;7.000;2023-05-22T02:58:55;87291.09;;;-143.16;81.64
14885;BME280;7534;50.762;7.000;2023-05-22T03:01:21;87311.28;;;-143.16;81.92
14885;BME280;7534;50.762;7.000;2023-05-22T03:03:47;87321.38;;;-143.16;81.84
14885;BME280;7534;50.762;7.000;2023-05-22T03:06:14;87250.72;;;-143.16;82.31
14885;BME280;7534;50.762;7.000;2023-05-22T03:08:40;87349.63;;;-143.16;82.61
14885;BME280;7534;50.762;7.000;2023-05-22T03:11:08;87319.34;;;-143.16;82.63
14885;BME280;7534;50.762;7.000;2023-05-22T03:13:34;87321.38;;;-143.16;82.51
14885;BME280;7534;50.762;7.000;2023-05-22T03:16:01;87345.59;;;-143.16;82.85
14885;BME280;7534;50.762;7.000;2023-05-22T03:18:26;87331.47;;;-143.16;82.63
14885;BME280;7534;50.762;7.000;2023-05-22T03:20:52;87347.59;;;-143.16;82.48
14885;BME280;7534;50.762;7.000;2023-05-22T03:23:18;87381.91;;;-143.16;82.81
14885;BME280;7534;50.762;7.000;2023-05-22T03:25:46;87339.53;;;-143.16;82.43
14885;BME280;7534;50.762;7.000;2023-05-22T03:28:13;87339.53;;;-143.16;82.26
14885;BME280;7534;50.762;7.000;2023-05-22T03:30:39;87353.66;;;-143.16;82.64
14885;BME280;7534;50.762;7.000;2023-05-22T03:33:05;87385.94;;;-143.16;82.69
14885;BME280;7534;50.762;7.000;2023-05-22T03:35:30;87379.91;;;-143.16;82.61
14885;BME280;7534;50.762;7.000;2023-05-22T03:37:56;87266.88;;;-143.16;82.61
14885;BME280;7534;50.762;7.000;2023-05-22T03:40:22;87387.97;;;-143.16;82.24
14885;BME280;7534;50.762;7.000;2023-05-22T03:42:47;87406.13;;;-143.16;82.54
14885;BME280;7534;50.762;7.000;2023-05-22T03:45:14;87351.63;;;-143.16;82.40
14885;BME280;7534;50.762;7.000;2023-05-22T03:47:40;87377.88;;;-143.16;82.65
14885;BME280;7534;50.762;7.000;2023-05-22T03:50:06;87373.84;;;-143.16;82.26
14885;BME280;7534;50.762;7.000;2023-05-22T03:52:31;87329.44;;;-143.16;82.00
14885;BME280;7534;50.762;7.000;2023-05-22T03:54:57;87377.88;;;-143.16;82.51
14885;BME280;7534;50.762;7.000;2023-05-22T03:57:23;87414.19;;;-143.16;82.44
14885;BME280;7534;50.762;7.000;2023-05-22T03:59:48;87428.34;;;-143.16;82.53
14885;BME280;7534;50.762;7.000;2023-05-22T04:02:14;87345.59;;;-143.16;82.75
14885;BME280;7534;50.762;7.000;2023-05-22T04:04:41;87410.16;;;-143.16;83.06
14885;BME280;7534;50.762;7.000;2023-05-22T04:07:07;87357.69;;;-143.16;82.91
14885;BME280;7534;50.762;7.000;2023-05-22T04:09:34;87355.69;;;-143.16;82.68
14885;BME280;7534;50.762;7.000;2023-05-22T04:12:01;87394.03;;;-143.16;82.43
14885;BME280;7534;50.762;7.000;2023-05-22T04:14:28;87349.63;;;-143.16;82.10
14885;BME280;7534;50.762;7.000;2023-05-22T04:16:53;87383.94;;;-143.16;82.17
14885;BME280;7534;50.762;7.000;2023-05-22T04:19:19;87385.94;;;-143.16;82.27
14885;BME280;7534;50.762;7.000;2023-05-22T04:21:46;87369.81;;;-143.16;82.06
14885;BME280;7534;50.762;7.000;2023-05-22T04:24:12;87389.97;;;-143.16;81.05
14885;BME280;7534;50.762;7.000;2023-05-22T04:26:37;87349.63;;;-143.16;80.86
14885;BME280;7534;50.762;7.000;2023-05-22T04:29:04;87321.38;;;-143.16;80.52
14885;BME280;7534;50.762;7.000;2023-05-22T04:31:35;87321.38;;;-143.16;79.82
14885;BME280;7534;50.762;7.000;2023-05-22T04:34:01;87283.03;;;-143.16;79.53
14885;BME280;7534;50.762;7.000;2023-05-22T04:36:27;87325.41;;;-143.16;79.07
14885;BME280;7534;50.762;7.000;2023-05-22T04:38:54;87285.03;;;-143.16;78.60
14885;BME280;7534;50.762;7.000;2023-05-22T04:41:20;87272.94;;;-143.16;77.96
14885;BME280;7534;50.762;7.000;2023-05-22T04:43:51;87299.16;;;-143.16;78.12
14885;BME280;7534;50.762;7.000;2023-05-22T04:46:18;87285.03;;;-143.16;77.72
14885;BME280;7534;50.762;7.000;2023-05-22T04:48:44;87246.69;;;-143.16;76.53
14885;BME280;7534;50.762;7.000;2023-05-22T04:51:10;87252.75;;;-143.16;76.65
14885;BME280;7534;50.762;7.000;2023-05-22T04:53:37;87226.50;;;-143.16;76.26
14885;BME280;7534;50.762;7.000;2023-05-22T04:56:04;87238.63;;;-143.16;75.89
14885;BME280;7534;50.762;7.000;2023-05-22T04:58:29;87204.31;;;-143.16;75.37
14885;BME280;7534;50.762;7.000;2023-05-22T05:00:55;87208.34;;;-143.16;74.94
14885;BME280;7534;50.762;7.000;2023-05-22T05:03:23;87119.56;;;-143.16;73.79
14885;BME280;7534;50.762;7.000;2023-05-22T05:05:50;87180.09;;;-143.16;73.08
14885;BME280;7534;50.762;7.000;2023-05-22T05:08:16;87155.88;;;-143.16;72.33
14885;BME280;7534;50.762;7.000;2023-05-22T05:10:42;87145.78;;;-143.16;71.79
14885;BME280;7534;50.762;7.000;2023-05-22T05:13:08;87133.69;;;-143.16;71.87
14885;BME280;7534;50.762;7.000;2023-05-22T05:15:33;87119.56;;;-143.16;71.37
14885;BME280;7534;50.762;7.000;2023-05-22T05:17:59;87069.09;;;-143.16;71.16
14885;BME280;7534;50.762;7.000;2023-05-22T05:20:25;87095.34;;;-143.16;70.43
14885;BME280;7534;50.762;7.000;2023-05-22T05:22:52;87057.00;;;-143.16;69.92
14885;BME280;7534;50.762;7.000;2023-05-22T05:25:17;87052.97;;;-143.16;69.45
14885;BME280;7534;50.762;7.000;2023-05-22T05:27:43;87004.53;;;-143.16;68.64
14885;BME280;7534;50.762;7.000;2023-05-22T05:30:09;86956.09;;;-143.16;67.61
14885;BME280;7534;50.762;7.000;2023-05-22T05:32:35;86998.47;;;-143.16;66.99
14885;BME280;7534;50.762;7.000;2023-05-22T05:35:01;86921.78;;;-143.16;66.36
14885;BME280;7534;50.762;7.000;2023-05-22T05:37:27;86889.50;;;-143.16;65.45
14885;BME280;7534;50.762;7.000;2023-05-22T05:39:52;86921.78;;;-143.16;64.13
14885;BME280;7534;50.762;7.000;2023-05-22T05:42:18;86847.13;;;-143.16;63.93
14885;BME280;7534;50.762;7.000;2023-05-22T05:44:44;86835.03;;;-143.16;63.19
14885;BME280;7534;50.762;7.000;2023-05-22T05:47:10;86839.06;;;-143.16;62.81
14885;BME280;7534;50.762;7.000;2023-05-22T05:49:36;86828.97;;;-143.16;62.39
14885;BME280;7534;50.762;7.000;2023-05-22T05:52:01;86826.94;;;-143.16;62.14
14885;BME280;7534;50.762;7.000;2023-05-22T05:54:27;86891.53;;;-143.16;61.60
14885;BME280;7534;50.762;7.000;2023-05-22T05:56:53;86760.38;;;-143.16;61.09
14885;BME280;7534;50.762;7.000;2023-05-22T05:59:19;86693.78;;;-143.16;60.36
14885;BME280;7534;50.762;7.000;2023-05-22T06:01:45;86701.84;;;-143.16;60.02
14885;BME280;7534;50.762;7.000;2023-05-22T06:04:12;86647.38;;;-143.16;59.60
14885;BME280;7534;50.762;7.000;2023-05-22T06:06:38;86715.97;;;-143.16;60.01
14885;BME280;7534;50.762;7.000;2023-05-22T06:09:05;86707.91;;;-143.16;59.75
14885;BME280;7534;50.762;7.000;2023-05-22T06:11:31;86715.97;;;-143.16;59.42
14885;BME280;7534;50.762;7.000;2023-05-22T06:13:59;86619.13;;;-143.16;58.28
14885;BME280;7534;50.762;7.000;2023-05-22T06:16:25;86594.91;;;-143.16;57.54
14885;BME280;7534;50.762;7.000;2023-05-22T06:18:51;86578.75;;;-143.16;57.27
14885;BME280;7534;50.762;7.000;2023-05-22T06:21:18;86496.03;;;-143.16;56.03
14885;BME280;7534;50.762;7.000;2023-05-22T06:23:47;86510.16;;;-143.16;55.58
14885;BME280;7534;50.762;7.000;2023-05-22T06:26:15;86540.44;;;-143.16;55.92
14885;BME280;7534;50.762;7.000;2023-05-22T06:28:41;86473.84;;;-143.16;55.25
14885;BME280;7534;50.762;7.000;2023-05-22T06:31:07;86510.16;;;-143.16;55.10
14885;BME280;7534;50.762;7.000;2023-05-22T06:33:36;86538.41;;;-143.16;54.77
14885;BME280;7534;50.762;7.000;2023-05-22T06:36:06;86536.41;;;-143.16;55.27
14885;BME280;7534;50.762;7.000;2023-05-22T06:38:33;86540.44;;;-143.16;55.28
14885;BME280;7534;50.762;7.000;2023-05-22T06:40:59;86457.69;;;-143.16;55.05
14885;BME280;7534;50.762;7.000;2023-05-22T06:43:24;86429.44;;;-143.16;54.40
14885;BME280;7534;50.762;7.000;2023-05-22T06:45:50;86455.69;;;-143.16;53.57
14885;BME280;7534;50.762;7.000;2023-05-22T06:48:16;86453.66;;;-143.16;54.14
14885;BME280;7534;50.762;7.000;2023-05-22T06:50:41;86479.91;;;-143.16;53.39
14885;BME280;7534;50.762;7.000;2023-05-22T06:53:07;86379.00;;;-143.16;53.71
14885;BME280;7534;50.762;7.000;2023-05-22T06:55:33;86477.88;;;-143.16;53.51
14885;BME280;7534;50.762;7.000;2023-05-22T06:57:58;86447.63;;;-143.16;53.75
14885;BME280;7534;50.762;7.000;2023-05-22T07:00:24;86494.03;;;-143.16;53.78
14885;BME280;7534;50.762;7.000;2023-05-22T07:02:50;86528.31;;;-143.16;54.15
14885;BME280;7534;50.762;7.000;2023-05-22T07:05:16;86429.44;;;-143.16;53.90
14885;BME280;7534;50.762;7.000;2023-05-22T07:07:42;86395.16;;;-143.16;52.88
14885;BME280;7534;50.762;7.000;2023-05-22T07:10:09;86364.88;;;-143.16;52.81
14885;BME280;7534;50.762;7.000;2023-05-22T07:12:35;86322.53;;;-143.16;52.28
14885;BME280;7534;50.762;7.000;2023-05-22T07:15:01;86298.31;;;-143.16;51.24
14885;BME280;7534;50.762;7.000;2023-05-22T07:17:27;86284.19;;;-143.16;50.46
14885;BME280;7534;50.762;7.000;2023-05-22T07:19:53;86189.38;;;-143.16;49.98
14885;BME280;7534;50.762;7.000;2023-05-22T07:22:18;86155.06;;;-143.16;49.14
14885;BME280;7534;50.762;7.000;2023-05-22T07:24:45;86149.00;;;-143.16;48.77
14885;BME280;7534;50.762;7.000;2023-05-22T07:27:12;86048.16;;;-143.16;48.08
14885;BME280;7534;50.762;7.000;2023-05-22T07:29:37;85953.31;;;-143.16;47.11
14885;BME280;7534;50.762;7.000;2023-05-22T07:32:04;85941.22;;;-143.16;46.19
14885;BME280;7534;50.762;7.000;2023-05-22T07:34:30;85921.03;;;-143.16;45.82
14885;BME280;7534;50.762;7.000;2023-05-22T07:37:11;85919.03;;;-143.16;45.21
14885;BME280;7534;50.762;7.000;2023-05-22T07:39:39;85660.81;;;-143.16;43.35
14885;BME280;7534;50.762;7.000;2023-05-22T07:42:05;85598.28;;;-143.16;42.04
14885;BME280;7534;50.762;7.000;2023-05-22T07:44:31;85531.72;;;-143.16;41.82
14885;BME280;7534;50.762;7.000;2023-05-22T07:46:58;85598.28;;;-143.16;42.63
14885;BME280;7534;50.762;7.000;2023-05-22T07:49:24;85211.03;;;-143.16;40.02
14885;BME280;7534;50.762;7.000;2023-05-22T07:51:50;84964.97;;;-143.16;36.56
14885;BME280;7534;50.762;7.000;2023-05-22T07:54:16;84755.22;;;-143.16;35.05
14885;BME280;7534;50.762;7.000;2023-05-22T07:56:46;84918.56;;;-143.16;36.03
14885;BME280;7534;50.762;7.000;2023-05-22T07:59:12;84944.78;;;-143.16;36.71
14885;BME280;7534;50.762;7.000;2023-05-22T08:01:39;84964.97;;;-143.16;36.63
14885;BME280;7534;50.762;7.000;2023-05-22T08:04:06;85110.16;;;-143.16;37.85
14885;BME280;7534;50.762;7.000;2023-05-22T08:06:32;85118.25;;;-143.16;37.96
14885;BME280;7534;50.762;7.000;2023-05-22T08:09:02;85229.16;;;-143.16;38.65
14885;BME280;7534;50.762;7.000;2023-05-22T08:11:29;85206.97;;;-143.16;38.66
14885;BME280;7534;50.762;7.000;2023-05-22T08:13:56;85241.28;;;-143.16;38.27
14885;BME280;7534;50.762;7.000;2023-05-22T08:16:22;85239.25;;;-143.16;38.62
14885;BME280;7534;50.762;7.000;2023-05-22T08:18:48;85196.91;;;-143.16;38.75
14885;BME280;7534;50.762;7.000;2023-05-22T08:21:14;85436.91;;;-143.16;39.80
14885;BME280;7534;50.762;7.000;2023-05-22T08:23:39;85390.53;;;-143.16;39.69
14885;BME280;7534;50.762;7.000;2023-05-22T08:26:06;85398.59;;;-143.16;40.15
14885;BME280;7534;50.762;7.000;2023-05-22T08:28:33;85289.69;;;-143.16;39.22
14885;BME280;7534;50.762;7.000;2023-05-22T08:30:59;85090.00;;;-143.16;37.63
14885;BME280;7534;50.762;7.000;2023-05-22T08:33:24;84856.06;;;-143.16;37.10
14885;BME280;7534;50.762;7.000;2023-05-22T08:35:51;84733.03;;;-143.16;35.25
14885;BME280;7534;50.762;7.000;2023-05-22T08:38:16;84928.66;;;-143.16;36.35
14885;BME280;7534;50.762;7.000;2023-05-22T08:40:47;85172.69;;;-143.16;37.89
14885;BME280;7534;50.762;7.000;2023-05-22T08:43:15;85130.34;;;-143.16;38.12
14885;BME280;7534;50.762;7.000;2023-05-22T08:45:41;84989.16;;;-143.16;36.98
14885;BME280;7534;50.762;7.000;2023-05-22T08:48:12;84991.19;;;-143.16;36.26
14885;BME280;7534;50.762;7.000;2023-05-22T08:50:41;84969.00;;;-143.16;36.75
14885;BME280;7534;50.762;7.000;2023-05-22T08:53:11;84585.81;;;-143.16;34.00
14885;BME280;7534;50.762;7.000;2023-05-22T08:55:39;84368.03;;;-143.16;33.29
14885;BME280;7534;50.762;7.000;2023-05-22T08:58:05;84255.13;;;-143.16;32.51
14885;BME280;7534;50.762;7.000;2023-05-22T09:00:32;84023.25;;;-143.16;31.69
14885;BME280;7534;50.762;7.000;2023-05-22T09:02:58;84037.38;;;-143.16;31.16
14885;BME280;7534;50.762;7.000;2023-05-22T09:05:24;84351.91;;;-143.16;32.70
14885;BME280;7534;50.762;7.000;2023-05-22T09:07:52;84622.13;;;-143.16;33.71
14885;BME280;7534;50.762;7.000;2023-05-22T09:10:19;84480.97;;;-143.16;33.60
14885;BME280;7534;50.762;7.000;2023-05-22T09:13:07;84259.16;;;-143.16;32.59
14885;BME280;7534;50.762;7.000;2023-05-22T09:15:37;84436.59;;;-143.16;32.45
14885;BME280;7534;50.762;7.000;2023-05-22T09:18:04;84497.09;;;-143.16;33.53
14885;BME280;7534;50.762;7.000;2023-05-22T09:20:34;84670.53;;;-143.16;34.11
14885;BME280;7534;50.762;7.000;2023-05-22T09:23:00;84454.75;;;-143.16;33.23
14885;BME280;7534;50.762;7.000;2023-05-22T09:25:27;84355.94;;;-143.16;32.63
14885;BME280;7534;50.762;7.000;2023-05-22T09:27:52;84353.94;;;-143.16;32.53
14885;BME280;7534;50.762;7.000;2023-05-22T09:30:19;84462.81;;;-143.16;32.90
14885;BME280;7534;50.762;7.000;2023-05-22T09:32:47;84454.75;;;-143.16;32.95
14885;BME280;7534;50.762;7.000;2023-05-22T09:35:13;84269.25;;;-143.16;32.45
14885;BME280;7534;50.762;7.000;2023-05-22T09:37:39;84366.03;;;-143.16;32.33
14885;BME280;7534;50.762;7.000;2023-05-22T09:40:07;84614.06;;;-143.16;33.62
14885;BME280;7534;50.762;7.000;2023-05-22T09:42:34;84630.19;;;-143.16;33.55
14885;BME280;7534;50.762;7.000;2023-05-22T09:45:07;84567.69;;;-143.16;33.29
14885;BME280;7534;50.762;7.000;2023-05-22T09:47:33;84787.50;;;-143.16;34.37
14885;BME280;7534;50.762;7.000;2023-05-22T09:50:03;84983.13;;;-143.16;35.13
14885;BME280;7534;50.762;7.000;2023-05-22T09:52:36;84892.34;;;-143.16;35.30
14885;BME280;7534;50.762;7.000;2023-05-22T09:55:05;84948.81;;;-143.16;35.79
14885;BME280;7534;50.762;7.000;2023-05-22T09:57:38;85057.75;;;-143.16;36.46
14885;BME280;7534;50.762;7.000;2023-05-22T10:00:12;85083.94;;;-143.16;37.04
14885;BME280;7534;50.762;7.000;2023-05-22T10:02:48;85033.53;;;-143.16;35.72
14885;BME280;7534;50.762;7.000;2023-05-22T10:05:15;85085.97;;;-143.16;36.75
14885;BME280;7534;50.762;7.000;2023-05-22T10:07:56;85027.47;;;-143.16;36.99
14885;BME280;7534;50.762;7.000;2023-05-22T10:10:25;84910.50;;;-143.16;35.38
14885;BME280;7534;50.762;7.000;2023-05-22T10:13:03;84872.19;;;-143.16;35.88
14885;BME280;7534;50.762;7.000;2023-05-22T10:15:34;85094.03;;;-143.16;37.39
14885;BME280;7534;50.762;7.000;2023-05-22T10:18:00;85077.91;;;-143.16;36.96
14885;BME280;7534;50.762;7.000;2023-05-22T10:20:28;85340.09;;;-143.16;38.08
14885;BME280;7534;50.762;7.000;2023-05-22T10:22:55;85239.25;;;-143.16;38.22
14885;BME280;7534;50.762;7.000;2023-05-22T10:25:21;85019.41;;;-143.16;36.52
14885;BME280;7534;50.762;7.000;2023-05-22T10:27:51;85088.00;;;-143.16;36.68
14885;BME280;7534;50.762;7.000;2023-05-22T10:30:45;84985.13;;;-143.16;36.86
14885;BME280;7534;50.762;7.000;2023-05-22T10:33:23;85059.75;;;-143.16;36.36
14885;BME280;7534;50.762;7.000;2023-05-22T10:36:01;85142.44;;;-143.16;36.92
14885;BME280;7534;50.762;7.000;2023-05-22T10:41:29;85239.25;;;-143.16;37.87
14885;BME280;7534;50.762;7.000;2023-05-22T10:43:56;85495.41;;;-143.16;40.24
14885;BME280;7534;50.762;7.000;2023-05-22T10:46:22;85420.78;;;-143.16;39.55
14885;BME280;7534;50.762;7.000;2023-05-22T10:48:51;85291.69;;;-143.16;38.76
14885;BME280;7534;50.762;7.000;2023-05-22T10:51:21;85491.38;;;-143.16;40.06
14885;BME280;7534;50.762;7.000;2023-05-22T10:53:57;85497.44;;;-143.16;40.07
14885;BME280;7534;50.762;7.000;2023-05-22T10:56:23;85511.56;;;-143.16;40.43
14885;BME280;7534;50.762;7.000;2023-05-22T10:58:56;85535.75;;;-143.16;40.91
14885;BME280;7534;50.762;7.000;2023-05-22T11:01:25;85592.25;;;-143.16;41.43
14885;BME280;7534;50.762;7.000;2023-05-22T11:03:58;85592.25;;;-143.16;40.89
14885;BME280;7534;50.762;7.000;2023-05-22T11:06:39;85578.13;;;-143.16;40.86
14885;BME280;7534;50.762;7.000;2023-05-22T11:09:29;85612.41;;;-143.16;40.88
14885;BME280;7534;50.762;7.000;2023-05-22T11:12:15;85606.34;;;-143.16;41.03
14885;BME280;7534;50.762;7.000;2023-05-22T11:14:46;85654.78;;;-143.16;41.35
14885;BME280;7534;50.762;7.000;2023-05-22T11:17:18;85578.13;;;-143.16;41.37
14885;BME280;7534;50.762;7.000;2023-05-22T11:20:01;85664.84;;;-143.16;42.06
14885;BME280;7534;50.762;7.000;2023-05-22T11:22:37;85648.72;;;-143.16;42.41
14885;BME280;7534;50.762;7.000;2023-05-22T11:27:34;85634.59;;;-143.16;41.95
14885;BME280;7534;50.762;7.000;2023-05-22T11:30:00;85630.56;;;-143.16;42.89
14885;BME280;7534;50.762;7.000;2023-05-22T11:32:26;85689.06;;;-143.16;41.88
14885;BME280;7534;50.762;7.000;2023-05-22T11:34:52;85654.78;;;-143.16;42.78
14885;BME280;7534;50.762;7.000;2023-05-22T11:37:19;85642.66;;;-143.16;42.10
14885;BME280;7534;50.762;7.000;2023-05-22T11:39:55;85691.06;;;-143.16;42.44
14885;BME280;7534;50.762;7.000;2023-05-22T11:42:22;85759.66;;;-143.16;43.44
14885;BME280;7534;50.762;7.000;2023-05-22T11:44:48;85739.50;;;-143.16;43.58
14885;BME280;7534;50.762;7.000;2023-05-22T11:47:14;85781.84;;;-143.16;42.96
14885;BME280;7534;50.762;7.000;2023-05-22T11:49:41;85771.78;;;-143.16;43.29
14885;BME280;7534;50.762;7.000;2023-05-22T11:52:08;85856.50;;;-143.16;43.45
14885;BME280;7534;50.762;7.000;2023-05-22T11:54:35;85852.47;;;-143.16;44.30
14885;BME280;7534;50.762;7.000;2023-05-22T11:57:08;85858.50;;;-143.16;44.44
14885;BME280;7534;50.762;7.000;2023-05-22T11:59:34;85872.63;;;-143.16;44.48
14885;BME280;7534;50.762;7.000;2023-05-22T12:02:00;85745.53;;;-143.16;44.58
14885;BME280;7534;50.762;7.000;2023-05-22T12:04:26;85769.75;;;-143.16;44.04
14885;BME280;7534;50.762;7.000;2023-05-22T12:06:53;85735.47;;;-143.16;43.75
14885;BME280;7534;50.762;7.000;2023-05-22T12:09:19;85666.88;;;-143.16;43.20
14885;BME280;7534;50.762;7.000;2023-05-22T12:11:48;85709.22;;;-143.16;43.54
14885;BME280;7534;50.762;7.000;2023-05-22T12:14:14;85745.53;;;-143.16;42.69
14885;BME280;7534;50.762;7.000;2023-05-22T12:16:40;85793.97;;;-143.16;43.38
14885;BME280;7534;50.762;7.000;2023-05-22T12:19:10;85832.28;;;-143.16;45.96
14885;BME280;7534;50.762;7.000;2023-05-22T12:21:39;85888.78;;;-143.16;45.72
14885;BME280;7534;50.762;7.000;2023-05-22T12:24:07;85910.97;;;-143.16;44.09
14885;BME280;7534;50.762;7.000;2023-05-22T12:26:32;85749.56;;;-143.16;43.63
14885;BME280;7534;50.762;7.000;2023-05-22T12:28:59;85674.94;;;-143.16;44.03
14885;BME280;7534;50.762;7.000;2023-05-22T12:31:25;85763.69;;;-143.16;44.52
14885;BME280;7534;50.762;7.000;2023-05-22T12:33:55;85798.00;;;-143.16;44.09
14885;BME280;7534;50.762;7.000;2023-05-22T12:36:38;85715.28;;;-143.16;43.41
14885;BME280;7534;50.762;7.000;2023-05-22T12:39:15;85765.72;;;-143.16;43.76
14885;BME280;7534;50.762;7.000;2023-05-22T12:41:42;85678.97;;;-143.16;43.82
14885;BME280;7534;50.762;7.000;2023-05-22T12:44:08;85783.88;;;-143.16;43.26
14885;BME280;7534;50.762;7.000;2023-05-22T12:46:34;85632.59;;;-143.16;43.49
14885;BME280;7534;50.762;7.000;2023-05-22T12:49:01;85584.16;;;-143.16;42.85
14885;BME280;7534;50.762;7.000;2023-05-22T12:51:29;85685.03;;;-143.16;42.66
14885;BME280;7534;50.762;7.000;2023-05-22T12:53:57;85652.75;;;-143.16;42.59
14885;BME280;7534;50.762;7.000;2023-05-22T12:56:23;85733.44;;;-143.16;42.88
14885;BME280;7534;50.762;7.000;2023-05-22T12:58:49;85662.84;;;-143.16;43.62
14885;BME280;7534;50.762;7.000;2023-05-22T13:01:15;85648.72;;;-143.16;43.35
14885;BME280;7534;50.762;7.000;2023-05-22T13:03:41;85697.13;;;-143.16;43.33
14885;BME280;7534;50.762;7.000;2023-05-22T13:06:07;85695.13;;;-143.16;43.27
14885;BME280;7534;50.762;7.000;2023-05-22T13:08:32;85689.06;;;-143.16;43.32